TAF LEAG
LEAG 261400Z 2615/2715 29016KT CAVOK TX15/2715Z TN11/2709Z=
METAR LEAG
LEAG 270730Z AUTO 34008KT 290V080 CAVOK 10/06 Q1013=
LEAG 270700Z AUTO 33008KT 310V020 CAVOK 10/05 Q1013=
LEAG 270630Z AUTO 33008KT 270V010 CAVOK 10/04 Q1013=
LEAG 270600Z AUTO 33009KT 310V010 CAVOK 10/04 Q1012=
LEAG 270500Z AUTO 33006KT 280V350 CAVOK 11/04 Q1012=
WC LEAG
WS LEAG
WV LEAG